sensor_id;sensor_type;location;lat;lon;timestamp;P1;durP1;ratioP1;P2;durP2;ratioP2
23009;SDS011;11671;49.990;8.028;2023-10-09T00:01:50;823.75;;;769.05;;
23009;SDS011;11671;49.990;8.028;2023-10-09T00:04:17;838.30;;;782.35;;
23009;SDS011;11671;49.990;8.028;2023-10-09T00:09:09;818.78;;;764.55;;
23009;SDS011;11671;49.990;8.028;2023-10-09T00:11:48;821.92;;;767.30;;
23009;SDS011;11671;49.990;8.028;2023-10-09T00:14:21;807.83;;;754.28;;
23009;SDS011;11671;49.990;8.028;2023-10-09T00:19:21;808.60;;;755.08;;
23009;SDS011;11671;49.990;8.028;2023-10-09T00:21:55;804.38;;;751.10;;
23009;SDS011;11671;49.990;8.028;2023-10-09T00:24:23;819.45;;;764.70;;
23009;SDS011;11671;49.990;8.028;2023-10-09T00:29:21;817.15;;;763.33;;
23009;SDS011;11671;49.990;8.028;2023-10-09T00:34:21;838.85;;;783.35;;
23009;SDS011;11671;49.990;8.028;2023-10-09T00:36:47;826.60;;;771.65;;
23009;SDS011;11671;49.990;8.028;2023-10-09T00:39:19;831.97;;;776.40;;
23009;SDS011;11671;49.990;8.028;2023-10-09T00:42:01;824.17;;;769.35;;
23009;SDS011;11671;49.990;8.028;2023-10-09T00:44:27;848.47;;;791.70;;
23009;SDS011;11671;49.990;8.028;2023-10-09T00:47:06;828.42;;;773.33;;
23009;SDS011;11671;49.990;8.028;2023-10-09T00:52:25;797.33;;;743.65;;
23009;SDS011;11671;49.990;8.028;2023-10-09T00:55:00;824.97;;;770.00;;
23009;SDS011;11671;49.990;8.028;2023-10-09T00:57:29;822.30;;;767.08;;
23009;SDS011;11671;49.990;8.028;2023-10-09T00:59:59;807.50;;;753.42;;
23009;SDS011;11671;49.990;8.028;2023-10-09T01:02:26;819.13;;;764.55;;
23009;SDS011;11671;49.990;8.028;2023-10-09T01:05:01;812.78;;;758.67;;
23009;SDS011;11671;49.990;8.028;2023-10-09T01:07:43;828.75;;;773.45;;
23009;SDS011;11671;49.990;8.028;2023-10-09T01:10:10;825.67;;;770.45;;
23009;SDS011;11671;49.990;8.028;2023-10-09T01:15:09;823.13;;;768.83;;
23009;SDS011;11671;49.990;8.028;2023-10-09T01:17:55;820.65;;;766.63;;
23009;SDS011;11671;49.990;8.028;2023-10-09T01:20:23;822.45;;;768.10;;
23009;SDS011;11671;49.990;8.028;2023-10-09T01:22:55;821.90;;;767.22;;
23009;SDS011;11671;49.990;8.028;2023-10-09T01:27:46;830.53;;;776.17;;
23009;SDS011;11671;49.990;8.028;2023-10-09T01:32:39;841.20;;;785.85;;
23009;SDS011;11671;49.990;8.028;2023-10-09T01:35:05;816.85;;;762.70;;
23009;SDS011;11671;49.990;8.028;2023-10-09T01:37:44;814.03;;;759.75;;
23009;SDS011;11671;49.990;8.028;2023-10-09T01:40:14;830.67;;;775.78;;
23009;SDS011;11671;49.990;8.028;2023-10-09T01:43:00;837.90;;;782.15;;
23009;SDS011;11671;49.990;8.028;2023-10-09T01:45:28;822.28;;;767.47;;
23009;SDS011;11671;49.990;8.028;2023-10-09T01:50:20;828.33;;;774.10;;
23009;SDS011;11671;49.990;8.028;2023-10-09T01:52:50;798.50;;;745.83;;
23009;SDS011;11671;49.990;8.028;2023-10-09T01:57:59;837.75;;;782.47;;
23009;SDS011;11671;49.990;8.028;2023-10-09T02:00:30;807.30;;;754.00;;
23009;SDS011;11671;49.990;8.028;2023-10-09T02:03:00;821.20;;;766.80;;
23009;SDS011;11671;49.990;8.028;2023-10-09T02:05:30;817.97;;;763.78;;
23009;SDS011;11671;49.990;8.028;2023-10-09T02:07:58;826.83;;;771.97;;
23009;SDS011;11671;49.990;8.028;2023-10-09T02:10:27;817.47;;;763.15;;
23009;SDS011;11671;49.990;8.028;2023-10-09T02:15:27;822.10;;;767.85;;
23009;SDS011;11671;49.990;8.028;2023-10-09T02:18:09;815.03;;;761.25;;
23009;SDS011;11671;49.990;8.028;2023-10-09T02:20:51;818.10;;;764.03;;
23009;SDS011;11671;49.990;8.028;2023-10-09T02:23:24;833.17;;;778.03;;
23009;SDS011;11671;49.990;8.028;2023-10-09T02:28:44;829.53;;;775.55;;
23009;SDS011;11671;49.990;8.028;2023-10-09T02:31:23;842.30;;;786.50;;
23009;SDS011;11671;49.990;8.028;2023-10-09T02:33:51;804.83;;;751.85;;
23009;SDS011;11671;49.990;8.028;2023-10-09T02:36:19;826.58;;;771.95;;
23009;SDS011;11671;49.990;8.028;2023-10-09T02:41:14;836.63;;;781.63;;
23009;SDS011;11671;49.990;8.028;2023-10-09T02:43:45;815.92;;;762.30;;
23009;SDS011;11671;49.990;8.028;2023-10-09T02:46:15;823.10;;;768.85;;
23009;SDS011;11671;49.990;8.028;2023-10-09T02:48:55;827.92;;;773.10;;
23009;SDS011;11671;49.990;8.028;2023-10-09T02:51:23;841.80;;;785.85;;
23009;SDS011;11671;49.990;8.028;2023-10-09T02:53:56;824.90;;;770.55;;
23009;SDS011;11671;49.990;8.028;2023-10-09T02:56:32;830.28;;;775.50;;
23009;SDS011;11671;49.990;8.028;2023-10-09T02:59:07;820.42;;;766.30;;
23009;SDS011;11671;49.990;8.028;2023-10-09T03:04:00;841.50;;;786.03;;
23009;SDS011;11671;49.990;8.028;2023-10-09T03:06:27;812.42;;;759.13;;
23009;SDS011;11671;49.990;8.028;2023-10-09T03:08:56;841.35;;;785.38;;
23009;SDS011;11671;49.990;8.028;2023-10-09T03:11:22;817.33;;;763.15;;
23009;SDS011;11671;49.990;8.028;2023-10-09T03:16:14;822.60;;;768.80;;
23009;SDS011;11671;49.990;8.028;2023-10-09T03:18:41;807.03;;;754.38;;
23009;SDS011;11671;49.990;8.028;2023-10-09T03:23:33;838.95;;;783.60;;
23009;SDS011;11671;49.990;8.028;2023-10-09T03:26:03;825.70;;;771.40;;
23009;SDS011;11671;49.990;8.028;2023-10-09T03:30:54;825.03;;;771.28;;
23009;SDS011;11671;49.990;8.028;2023-10-09T03:33:20;833.28;;;778.65;;
23009;SDS011;11671;49.990;8.028;2023-10-09T03:35:48;818.38;;;764.72;;
23009;SDS011;11671;49.990;8.028;2023-10-09T03:38:14;826.35;;;771.97;;
23009;SDS011;11671;49.990;8.028;2023-10-09T03:40:43;827.05;;;772.55;;
23009;SDS011;11671;49.990;8.028;2023-10-09T03:43:12;824.90;;;770.55;;
23009;SDS011;11671;49.990;8.028;2023-10-09T03:45:39;831.03;;;776.42;;
23009;SDS011;11671;49.990;8.028;2023-10-09T03:48:17;825.08;;;771.25;;
23009;SDS011;11671;49.990;8.028;2023-10-09T03:50:46;839.85;;;784.35;;
23009;SDS011;11671;49.990;8.028;2023-10-09T03:53:13;835.85;;;781.00;;
23009;SDS011;11671;49.990;8.028;2023-10-09T03:55:39;809.78;;;756.88;;
23009;SDS011;11671;49.990;8.028;2023-10-09T03:58:08;845.55;;;789.38;;
23009;SDS011;11671;49.990;8.028;2023-10-09T04:00:38;817.42;;;763.83;;
23009;SDS011;11671;49.990;8.028;2023-10-09T04:03:10;831.47;;;777.08;;
23009;SDS011;11671;49.990;8.028;2023-10-09T04:05:36;845.70;;;790.10;;
23009;SDS011;11671;49.990;8.028;2023-10-09T04:08:05;833.22;;;778.35;;
23009;SDS011;11671;49.990;8.028;2023-10-09T04:10:38;821.85;;;767.80;;
23009;SDS011;11671;49.990;8.028;2023-10-09T04:13:19;828.75;;;774.35;;
23009;SDS011;11671;49.990;8.028;2023-10-09T04:15:51;824.35;;;770.25;;
23009;SDS011;11671;49.990;8.028;2023-10-09T04:18:19;825.55;;;771.25;;
23009;SDS011;11671;49.990;8.028;2023-10-09T04:20:46;814.28;;;761.10;;
23009;SDS011;11671;49.990;8.028;2023-10-09T04:23:29;824.67;;;770.63;;
23009;SDS011;11671;49.990;8.028;2023-10-09T04:26:21;820.70;;;766.92;;
23009;SDS011;11671;49.990;8.028;2023-10-09T04:28:47;842.30;;;786.85;;
23009;SDS011;11671;49.990;8.028;2023-10-09T04:31:17;806.33;;;753.60;;
23009;SDS011;11671;49.990;8.028;2023-10-09T04:33:44;823.78;;;769.58;;
23009;SDS011;11671;49.990;8.028;2023-10-09T04:36:11;832.53;;;777.72;;
23009;SDS011;11671;49.990;8.028;2023-10-09T04:38:57;806.15;;;753.15;;
23009;SDS011;11671;49.990;8.028;2023-10-09T04:41:29;830.55;;;775.67;;
23009;SDS011;11671;49.990;8.028;2023-10-09T04:44:06;824.50;;;769.90;;
23009;SDS011;11671;49.990;8.028;2023-10-09T04:46:47;827.03;;;772.67;;
23009;SDS011;11671;49.990;8.028;2023-10-09T04:49:35;829.00;;;774.13;;
23009;SDS011;11671;49.990;8.028;2023-10-09T04:52:22;830.78;;;775.65;;
23009;SDS011;11671;49.990;8.028;2023-10-09T04:54:50;814.13;;;760.70;;
23009;SDS011;11671;49.990;8.028;2023-10-09T05:00:09;838.55;;;783.08;;
23009;SDS011;11671;49.990;8.028;2023-10-09T05:02:51;828.30;;;773.95;;
23009;SDS011;11671;49.990;8.028;2023-10-09T05:05:25;803.33;;;751.00;;
23009;SDS011;11671;49.990;8.028;2023-10-09T05:08:00;807.03;;;753.80;;
23009;SDS011;11671;49.990;8.028;2023-10-09T05:10:43;814.22;;;760.95;;
23009;SDS011;11671;49.990;8.028;2023-10-09T05:13:30;817.70;;;763.45;;
23009;SDS011;11671;49.990;8.028;2023-10-09T05:18:44;819.28;;;765.05;;
23009;SDS011;11671;49.990;8.028;2023-10-09T05:21:20;813.55;;;759.90;;
23009;SDS011;11671;49.990;8.028;2023-10-09T05:23:55;832.70;;;777.85;;
23009;SDS011;11671;49.990;8.028;2023-10-09T05:26:37;815.75;;;762.15;;
23009;SDS011;11671;49.990;8.028;2023-10-09T05:29:12;841.70;;;785.93;;
23009;SDS011;11671;49.990;8.028;2023-10-09T05:32:03;809.05;;;756.05;;
23009;SDS011;11671;49.990;8.028;2023-10-09T05:34:44;814.78;;;761.25;;
23009;SDS011;11671;49.990;8.028;2023-10-09T05:37:26;811.28;;;758.05;;
23009;SDS011;11671;49.990;8.028;2023-10-09T05:40:05;820.13;;;766.10;;
23009;SDS011;11671;49.990;8.028;2023-10-09T05:42:34;810.67;;;757.30;;
23009;SDS011;11671;49.990;8.028;2023-10-09T05:45:07;817.90;;;764.25;;
23009;SDS011;11671;49.990;8.028;2023-10-09T05:47:42;814.67;;;760.00;;
23009;SDS011;11671;49.990;8.028;2023-10-09T05:50:27;839.47;;;784.33;;
23009;SDS011;11671;49.990;8.028;2023-10-09T05:52:54;815.25;;;761.53;;
23009;SDS011;11671;49.990;8.028;2023-10-09T05:55:20;787.65;;;736.10;;
23009;SDS011;11671;49.990;8.028;2023-10-09T05:57:50;808.70;;;755.42;;
23009;SDS011;11671;49.990;8.028;2023-10-09T06:00:35;816.75;;;763.03;;
23009;SDS011;11671;49.990;8.028;2023-10-09T06:03:20;823.13;;;768.78;;
23009;SDS011;11671;49.990;8.028;2023-10-09T06:08:23;839.17;;;784.28;;
23009;SDS011;11671;49.990;8.028;2023-10-09T06:10:53;809.58;;;755.85;;
23009;SDS011;11671;49.990;8.028;2023-10-09T06:13:32;834.45;;;779.10;;
23009;SDS011;11671;49.990;8.028;2023-10-09T06:16:06;828.70;;;772.95;;
23009;SDS011;11671;49.990;8.028;2023-10-09T06:18:45;848.63;;;791.97;;
23009;SDS011;11671;49.990;8.028;2023-10-09T06:21:19;835.40;;;779.47;;
23009;SDS011;11671;49.990;8.028;2023-10-09T06:24:05;830.17;;;774.63;;
23009;SDS011;11671;49.990;8.028;2023-10-09T06:26:39;833.38;;;777.05;;
23009;SDS011;11671;49.990;8.028;2023-10-09T06:29:16;812.35;;;757.90;;
23009;SDS011;11671;49.990;8.028;2023-10-09T06:31:58;827.75;;;772.25;;
23009;SDS011;11671;49.990;8.028;2023-10-09T06:34:41;831.28;;;775.15;;
23009;SDS011;11671;49.990;8.028;2023-10-09T06:37:20;842.22;;;785.45;;
23009;SDS011;11671;49.990;8.028;2023-10-09T06:39:52;823.78;;;767.95;;
23009;SDS011;11671;49.990;8.028;2023-10-09T06:42:26;819.22;;;763.50;;
23009;SDS011;11671;49.990;8.028;2023-10-09T06:44:56;792.88;;;738.97;;
23009;SDS011;11671;49.990;8.028;2023-10-09T06:47:33;817.97;;;762.47;;
23009;SDS011;11671;49.990;8.028;2023-10-09T06:50:07;820.72;;;765.03;;
23009;SDS011;11671;49.990;8.028;2023-10-09T06:52:45;835.35;;;778.70;;
23009;SDS011;11671;49.990;8.028;2023-10-09T06:55:25;806.55;;;751.78;;
23009;SDS011;11671;49.990;8.028;2023-10-09T06:57:59;836.58;;;779.33;;
23009;SDS011;11671;49.990;8.028;2023-10-09T07:00:41;794.22;;;739.78;;
23009;SDS011;11671;49.990;8.028;2023-10-09T07:03:33;820.97;;;765.03;;
23009;SDS011;11671;49.990;8.028;2023-10-09T07:08:34;831.42;;;775.22;;
23009;SDS011;11671;49.990;8.028;2023-10-09T07:11:06;799.72;;;745.42;;
23009;SDS011;11671;49.990;8.028;2023-10-09T07:19:42;819.70;;;763.42;;
23009;SDS011;11671;49.990;8.028;2023-10-09T07:22:09;821.45;;;764.47;;
23009;SDS011;11671;49.990;8.028;2023-10-09T07:30:12;756.60;;;704.55;;
23009;SDS011;11671;49.990;8.028;2023-10-09T07:33:14;781.08;;;726.85;;
23009;SDS011;11671;49.990;8.028;2023-10-09T07:35:40;787.60;;;732.85;;
23009;SDS011;11671;49.990;8.028;2023-10-09T07:38:07;783.55;;;728.90;;
23009;SDS011;11671;49.990;8.028;2023-10-09T07:40:39;784.65;;;729.78;;
23009;SDS011;11671;49.990;8.028;2023-10-09T07:43:40;776.15;;;721.75;;
23009;SDS011;11671;49.990;8.028;2023-10-09T07:46:12;795.40;;;739.13;;
23009;SDS011;11671;49.990;8.028;2023-10-09T07:51:49;777.60;;;723.40;;
23009;SDS011;11671;49.990;8.028;2023-10-09T07:54:17;754.67;;;701.20;;
23009;SDS011;11671;49.990;8.028;2023-10-09T07:56:58;766.95;;;712.95;;
23009;SDS011;11671;49.990;8.028;2023-10-09T07:59:34;736.83;;;685.13;;
23009;SDS011;11671;49.990;8.028;2023-10-09T08:02:06;754.50;;;700.90;;
23009;SDS011;11671;49.990;8.028;2023-10-09T08:04:38;749.38;;;695.95;;
23009;SDS011;11671;49.990;8.028;2023-10-09T08:07:05;744.33;;;691.38;;
23009;SDS011;11671;49.990;8.028;2023-10-09T08:09:38;738.38;;;686.00;;
23009;SDS011;11671;49.990;8.028;2023-10-09T08:12:12;717.42;;;666.63;;
23009;SDS011;11671;49.990;8.028;2023-10-09T08:15:00;716.15;;;665.53;;
23009;SDS011;11671;49.990;8.028;2023-10-09T08:20:30;731.92;;;679.40;;
23009;SDS011;11671;49.990;8.028;2023-10-09T08:23:14;720.33;;;668.85;;
23009;SDS011;11671;49.990;8.028;2023-10-09T08:26:09;706.75;;;656.47;;
23009;SDS011;11671;49.990;8.028;2023-10-09T08:28:38;702.10;;;652.20;;
23009;SDS011;11671;49.990;8.028;2023-10-09T08:31:07;687.58;;;638.30;;
23009;SDS011;11671;49.990;8.028;2023-10-09T08:33:56;703.95;;;653.50;;
23009;SDS011;11671;49.990;8.028;2023-10-09T08:36:26;683.63;;;635.10;;
23009;SDS011;11671;49.990;8.028;2023-10-09T08:39:04;699.50;;;649.00;;
23009;SDS011;11671;49.990;8.028;2023-10-09T08:41:50;696.13;;;645.63;;
23009;SDS011;11671;49.990;8.028;2023-10-09T08:44:17;676.95;;;627.85;;
23009;SDS011;11671;49.990;8.028;2023-10-09T08:46:47;672.65;;;624.30;;
23009;SDS011;11671;49.990;8.028;2023-10-09T08:49:15;691.47;;;641.38;;
23009;SDS011;11671;49.990;8.028;2023-10-09T08:51:42;667.40;;;619.42;;
23009;SDS011;11671;49.990;8.028;2023-10-09T08:56:36;681.55;;;632.83;;
23009;SDS011;11671;49.990;8.028;2023-10-09T08:59:04;680.97;;;631.90;;
23009;SDS011;11671;49.990;8.028;2023-10-09T09:03:59;697.15;;;647.13;;
23009;SDS011;11671;49.990;8.028;2023-10-09T09:06:27;676.22;;;627.85;;
23009;SDS011;11671;49.990;8.028;2023-10-09T09:09:09;659.22;;;612.22;;
23009;SDS011;11671;49.990;8.028;2023-10-09T09:14:14;680.30;;;631.83;;
23009;SDS011;11671;49.990;8.028;2023-10-09T09:16:43;687.47;;;637.45;;
23009;SDS011;11671;49.990;8.028;2023-10-09T09:19:13;667.72;;;619.97;;
23009;SDS011;11671;49.990;8.028;2023-10-09T09:21:49;668.40;;;620.50;;
23009;SDS011;11671;49.990;8.028;2023-10-09T09:24:24;666.72;;;618.90;;
23009;SDS011;11671;49.990;8.028;2023-10-09T09:26:57;690.42;;;640.08;;
23009;SDS011;11671;49.990;8.028;2023-10-09T09:37:28;667.45;;;619.65;;
23009;SDS011;11671;49.990;8.028;2023-10-09T09:39:58;654.65;;;607.80;;
23009;SDS011;11671;49.990;8.028;2023-10-09T09:42:26;650.28;;;603.88;;
23009;SDS011;11671;49.990;8.028;2023-10-09T09:44:53;672.83;;;623.70;;
23009;SDS011;11671;49.990;8.028;2023-10-09T09:47:20;691.70;;;640.85;;
23009;SDS011;11671;49.990;8.028;2023-10-09T09:49:52;673.30;;;624.45;;
23009;SDS011;11671;49.990;8.028;2023-10-09T09:52:37;656.63;;;609.47;;
23009;SDS011;11671;49.990;8.028;2023-10-09T09:57:29;685.90;;;635.97;;
23009;SDS011;11671;49.990;8.028;2023-10-09T09:59:57;655.28;;;607.85;;
23009;SDS011;11671;49.990;8.028;2023-10-09T10:02:29;629.47;;;584.88;;
23009;SDS011;11671;49.990;8.028;2023-10-09T10:05:01;634.10;;;588.65;;
23009;SDS011;11671;49.990;8.028;2023-10-09T10:07:31;670.70;;;621.75;;
23009;SDS011;11671;49.990;8.028;2023-10-09T10:12:52;635.35;;;589.97;;
23009;SDS011;11671;49.990;8.028;2023-10-09T10:18:24;616.45;;;572.53;;
23009;SDS011;11671;49.990;8.028;2023-10-09T10:21:14;616.20;;;572.00;;
23009;SDS011;11671;49.990;8.028;2023-10-09T10:23:45;616.40;;;572.22;;
23009;SDS011;11671;49.990;8.028;2023-10-09T10:31:54;609.75;;;565.63;;
23009;SDS011;11671;49.990;8.028;2023-10-09T10:34:22;625.10;;;579.20;;
23009;SDS011;11671;49.990;8.028;2023-10-09T10:36:49;602.08;;;558.20;;
23009;SDS011;11671;49.990;8.028;2023-10-09T10:39:23;603.85;;;559.65;;
23009;SDS011;11671;49.990;8.028;2023-10-09T10:42:10;612.60;;;567.50;;
23009;SDS011;11671;49.990;8.028;2023-10-09T10:44:58;593.78;;;550.22;;
23009;SDS011;11671;49.990;8.028;2023-10-09T10:47:27;577.80;;;535.10;;
23009;SDS011;11671;49.990;8.028;2023-10-09T10:50:01;583.35;;;540.03;;
23009;SDS011;11671;49.990;8.028;2023-10-09T10:52:46;610.10;;;564.58;;
23009;SDS011;11671;49.990;8.028;2023-10-09T10:55:22;598.83;;;554.17;;
23009;SDS011;11671;49.990;8.028;2023-10-09T10:58:00;585.67;;;541.80;;
23009;SDS011;11671;49.990;8.028;2023-10-09T11:00:29;579.20;;;535.28;;
23009;SDS011;11671;49.990;8.028;2023-10-09T11:03:20;582.50;;;538.88;;
23009;SDS011;11671;49.990;8.028;2023-10-09T11:06:01;590.88;;;546.55;;
23009;SDS011;11671;49.990;8.028;2023-10-09T11:08:49;579.83;;;536.30;;
23009;SDS011;11671;49.990;8.028;2023-10-09T11:11:21;585.10;;;540.60;;
23009;SDS011;11671;49.990;8.028;2023-10-09T11:13:48;555.47;;;513.97;;
23009;SDS011;11671;49.990;8.028;2023-10-09T11:16:23;598.95;;;553.42;;
23009;SDS011;11671;49.990;8.028;2023-10-09T11:19:09;585.63;;;541.20;;
23009;SDS011;11671;49.990;8.028;2023-10-09T11:22:03;559.78;;;517.85;;
23009;SDS011;11671;49.990;8.028;2023-10-09T11:24:30;583.53;;;538.97;;
23009;SDS011;11671;49.990;8.028;2023-10-09T11:27:00;561.65;;;518.97;;
23009;SDS011;11671;49.990;8.028;2023-10-09T11:29:31;560.25;;;517.55;;
23009;SDS011;11671;49.990;8.028;2023-10-09T11:32:19;558.72;;;516.28;;
23009;SDS011;11671;49.990;8.028;2023-10-09T11:34:50;582.22;;;538.22;;
23009;SDS011;11671;49.990;8.028;2023-10-09T11:37:20;572.05;;;528.65;;
23009;SDS011;11671;49.990;8.028;2023-10-09T11:39:53;560.10;;;517.88;;
23009;SDS011;11671;49.990;8.028;2023-10-09T11:42:20;572.13;;;529.08;;
23009;SDS011;11671;49.990;8.028;2023-10-09T11:45:01;586.05;;;541.78;;
23009;SDS011;11671;49.990;8.028;2023-10-09T11:47:44;584.38;;;540.15;;
23009;SDS011;11671;49.990;8.028;2023-10-09T11:53:43;611.65;;;565.15;;
23009;SDS011;11671;49.990;8.028;2023-10-09T11:56:11;591.80;;;547.40;;
23009;SDS011;11671;49.990;8.028;2023-10-09T11:58:41;583.85;;;539.45;;
23009;SDS011;11671;49.990;8.028;2023-10-09T12:01:11;568.00;;;525.55;;
23009;SDS011;11671;49.990;8.028;2023-10-09T12:03:48;572.72;;;529.65;;
23009;SDS011;11671;49.990;8.028;2023-10-09T12:06:18;564.42;;;522.08;;
23009;SDS011;11671;49.990;8.028;2023-10-09T12:08:47;543.47;;;502.85;;
23009;SDS011;11671;49.990;8.028;2023-10-09T12:11:13;546.88;;;505.65;;
23009;SDS011;11671;49.990;8.028;2023-10-09T12:13:54;569.58;;;526.65;;
23009;SDS011;11671;49.990;8.028;2023-10-09T12:16:22;572.67;;;529.15;;
23009;SDS011;11671;49.990;8.028;2023-10-09T12:18:53;557.20;;;514.95;;
23009;SDS011;11671;49.990;8.028;2023-10-09T12:21:20;569.70;;;526.10;;
23009;SDS011;11671;49.990;8.028;2023-10-09T12:23:45;570.55;;;527.03;;
23009;SDS011;11671;49.990;8.028;2023-10-09T12:26:12;572.58;;;528.50;;
23009;SDS011;11671;49.990;8.028;2023-10-09T12:28:41;542.20;;;501.27;;
23009;SDS011;11671;49.990;8.028;2023-10-09T12:31:16;581.97;;;537.53;;
23009;SDS011;11671;49.990;8.028;2023-10-09T12:33:46;568.53;;;525.45;;
23009;SDS011;11671;49.990;8.028;2023-10-09T12:36:12;574.40;;;530.53;;
23009;SDS011;11671;49.990;8.028;2023-10-09T12:38:45;564.78;;;521.70;;
23009;SDS011;11671;49.990;8.028;2023-10-09T12:41:15;582.38;;;537.83;;
23009;SDS011;11671;49.990;8.028;2023-10-09T12:43:54;574.50;;;531.08;;
23009;SDS011;11671;49.990;8.028;2023-10-09T12:46:22;591.30;;;546.20;;
23009;SDS011;11671;49.990;8.028;2023-10-09T12:48:51;556.08;;;514.03;;
23009;SDS011;11671;49.990;8.028;2023-10-09T12:51:19;562.33;;;519.95;;
23009;SDS011;11671;49.990;8.028;2023-10-09T12:53:50;565.08;;;522.45;;
23009;SDS011;11671;49.990;8.028;2023-10-09T12:56:22;562.83;;;520.05;;
23009;SDS011;11671;49.990;8.028;2023-10-09T12:58:48;571.17;;;527.25;;
23009;SDS011;11671;49.990;8.028;2023-10-09T13:01:21;538.65;;;498.02;;
23009;SDS011;11671;49.990;8.028;2023-10-09T13:03:47;501.27;;;463.45;;
23009;SDS011;11671;49.990;8.028;2023-10-09T13:06:14;509.33;;;470.75;;
23009;SDS011;11671;49.990;8.028;2023-10-09T13:08:48;538.83;;;497.80;;
23009;SDS011;11671;49.990;8.028;2023-10-09T13:11:14;529.20;;;488.85;;
23009;SDS011;11671;49.990;8.028;2023-10-09T13:13:43;511.08;;;472.33;;
23009;SDS011;11671;49.990;8.028;2023-10-09T13:18:53;512.15;;;473.45;;
23009;SDS011;11671;49.990;8.028;2023-10-09T13:23:46;509.50;;;470.95;;
23009;SDS011;11671;49.990;8.028;2023-10-09T13:26:12;525.08;;;484.92;;
23009;SDS011;11671;49.990;8.028;2023-10-09T13:28:55;526.75;;;486.98;;
23009;SDS011;11671;49.990;8.028;2023-10-09T13:31:22;522.53;;;482.40;;
23009;SDS011;11671;49.990;8.028;2023-10-09T13:33:51;511.38;;;472.88;;
23009;SDS011;11671;49.990;8.028;2023-10-09T13:36:23;527.75;;;487.75;;
23009;SDS011;11671;49.990;8.028;2023-10-09T13:38:56;525.22;;;485.60;;
23009;SDS011;11671;49.990;8.028;2023-10-09T13:41:22;513.40;;;474.55;;
23009;SDS011;11671;49.990;8.028;2023-10-09T13:43:54;529.28;;;489.25;;
23009;SDS011;11671;49.990;8.028;2023-10-09T13:46:21;518.63;;;478.85;;
23009;SDS011;11671;49.990;8.028;2023-10-09T13:48:48;532.05;;;491.92;;
23009;SDS011;11671;49.990;8.028;2023-10-09T13:51:17;516.45;;;477.40;;
23009;SDS011;11671;49.990;8.028;2023-10-09T13:53:44;529.00;;;488.73;;
23009;SDS011;11671;49.990;8.028;2023-10-09T13:56:13;504.95;;;466.73;;
23009;SDS011;11671;49.990;8.028;2023-10-09T13:58:52;484.50;;;448.05;;
23009;SDS011;11671;49.990;8.028;2023-10-09T14:01:20;507.33;;;468.92;;
23009;SDS011;11671;49.990;8.028;2023-10-09T14:03:55;530.45;;;489.92;;
23009;SDS011;11671;49.990;8.028;2023-10-09T14:06:22;497.83;;;460.25;;
23009;SDS011;11671;49.990;8.028;2023-10-09T14:09:05;529.28;;;488.85;;
23009;SDS011;11671;49.990;8.028;2023-10-09T14:14:12;516.15;;;476.92;;
23009;SDS011;11671;49.990;8.028;2023-10-09T14:16:41;495.20;;;457.98;;
23009;SDS011;11671;49.990;8.028;2023-10-09T14:19:08;500.73;;;462.88;;
23009;SDS011;11671;49.990;8.028;2023-10-09T14:21:38;515.22;;;476.10;;
23009;SDS011;11671;49.990;8.028;2023-10-09T14:24:05;497.63;;;460.20;;
23009;SDS011;11671;49.990;8.028;2023-10-09T14:26:40;526.53;;;486.83;;
23009;SDS011;11671;49.990;8.028;2023-10-09T14:29:06;533.13;;;492.85;;
23009;SDS011;11671;49.990;8.028;2023-10-09T14:31:32;502.60;;;464.95;;
23009;SDS011;11671;49.990;8.028;2023-10-09T14:34:04;542.03;;;501.13;;
23009;SDS011;11671;49.990;8.028;2023-10-09T14:36:30;520.58;;;481.58;;
23009;SDS011;11671;49.990;8.028;2023-10-09T14:38:59;519.53;;;480.77;;
23009;SDS011;11671;49.990;8.028;2023-10-09T14:41:26;516.50;;;477.58;;
23009;SDS011;11671;49.990;8.028;2023-10-09T14:43:53;539.13;;;498.50;;
23009;SDS011;11671;49.990;8.028;2023-10-09T14:46:19;544.65;;;503.75;;
23009;SDS011;11671;49.990;8.028;2023-10-09T14:48:53;535.95;;;495.85;;
23009;SDS011;11671;49.990;8.028;2023-10-09T14:51:19;543.88;;;502.85;;
23009;SDS011;11671;49.990;8.028;2023-10-09T14:53:53;533.25;;;493.38;;
23009;SDS011;11671;49.990;8.028;2023-10-09T14:56:22;502.55;;;465.15;;
23009;SDS011;11671;49.990;8.028;2023-10-09T14:58:53;536.10;;;496.17;;
23009;SDS011;11671;49.990;8.028;2023-10-09T15:01:21;531.83;;;492.10;;
23009;SDS011;11671;49.990;8.028;2023-10-09T15:03:49;518.78;;;480.15;;
23009;SDS011;11671;49.990;8.028;2023-10-09T15:06:18;526.03;;;486.60;;
23009;SDS011;11671;49.990;8.028;2023-10-09T15:08:44;520.72;;;482.17;;
23009;SDS011;11671;49.990;8.028;2023-10-09T15:11:10;532.90;;;493.33;;
23009;SDS011;11671;49.990;8.028;2023-10-09T15:13:36;532.78;;;493.48;;
23009;SDS011;11671;49.990;8.028;2023-10-09T15:16:04;542.13;;;501.83;;
23009;SDS011;11671;49.990;8.028;2023-10-09T15:18:30;539.10;;;499.10;;
23009;SDS011;11671;49.990;8.028;2023-10-09T15:20:59;526.53;;;487.85;;
23009;SDS011;11671;49.990;8.028;2023-10-09T15:23:25;535.53;;;496.13;;
23009;SDS011;11671;49.990;8.028;2023-10-09T15:25:51;531.72;;;492.85;;
23009;SDS011;11671;49.990;8.028;2023-10-09T15:28:21;524.50;;;485.67;;
23009;SDS011;11671;49.990;8.028;2023-10-09T15:30:47;533.63;;;494.58;;
23009;SDS011;11671;49.990;8.028;2023-10-09T15:33:14;536.65;;;497.15;;
23009;SDS011;11671;49.990;8.028;2023-10-09T15:35:44;537.22;;;497.92;;
23009;SDS011;11671;49.990;8.028;2023-10-09T15:38:11;561.22;;;520.10;;
23009;SDS011;11671;49.990;8.028;2023-10-09T15:40:38;533.78;;;495.08;;
23009;SDS011;11671;49.990;8.028;2023-10-09T15:43:07;546.65;;;506.67;;
23009;SDS011;11671;49.990;8.028;2023-10-09T15:45:40;548.03;;;507.85;;
23009;SDS011;11671;49.990;8.028;2023-10-09T15:48:09;548.88;;;508.65;;
23009;SDS011;11671;49.990;8.028;2023-10-09T15:50:37;520.35;;;482.98;;
23009;SDS011;11671;49.990;8.028;2023-10-09T15:53:12;557.10;;;516.42;;
23009;SDS011;11671;49.990;8.028;2023-10-09T15:55:37;522.53;;;484.88;;
23009;SDS011;11671;49.990;8.028;2023-10-09T15:58:03;553.03;;;512.88;;
23009;SDS011;11671;49.990;8.028;2023-10-09T16:00:33;535.88;;;497.33;;
23009;SDS011;11671;49.990;8.028;2023-10-09T16:02:59;560.25;;;519.58;;
23009;SDS011;11671;49.990;8.028;2023-10-09T16:05:25;543.63;;;504.65;;
23009;SDS011;11671;49.990;8.028;2023-10-09T16:07:52;551.30;;;511.35;;
23009;SDS011;11671;49.990;8.028;2023-10-09T16:10:19;545.55;;;506.38;;
23009;SDS011;11671;49.990;8.028;2023-10-09T16:12:46;525.67;;;488.33;;
23009;SDS011;11671;49.990;8.028;2023-10-09T16:15:12;559.15;;;518.67;;
23009;SDS011;11671;49.990;8.028;2023-10-09T16:17:39;564.65;;;523.70;;